sensor_id;sensor_type;location;lat;lon;timestamp;temperature;humidity
1461;DHT22;724;49.910;12.530;2022-12-31T00:00:37;7.40;99.90
1461;DHT22;724;49.910;12.530;2022-12-31T00:03:07;7.40;99.90
1461;DHT22;724;49.910;12.530;2022-12-31T00:05:35;7.40;99.90
1461;DHT22;724;49.910;12.530;2022-12-31T00:08:02;7.40;99.90
1461;DHT22;724;49.910;12.530;2022-12-31T00:10:29;7.40;99.90
1461;DHT22;724;49.910;12.530;2022-12-31T00:12:57;7.40;99.90
1461;DHT22;724;49.910;12.530;2022-12-31T00:15:24;7.40;99.90
1461;DHT22;724;49.910;12.530;2022-12-31T00:17:50;7.50;99.90
1461;DHT22;724;49.910;12.530;2022-12-31T00:20:18;7.50;99.90
1461;DHT22;724;49.910;12.530;2022-12-31T00:22:45;7.50;99.90
1461;DHT22;724;49.910;12.530;2022-12-31T00:25:12;7.50;99.90
1461;DHT22;724;49.910;12.530;2022-12-31T00:27:39;7.50;99.90
1461;DHT22;724;49.910;12.530;2022-12-31T00:30:07;7.50;99.90
1461;DHT22;724;49.910;12.530;2022-12-31T00:32:33;7.50;99.90
1461;DHT22;724;49.910;12.530;2022-12-31T00:35:00;7.50;99.90
1461;DHT22;724;49.910;12.530;2022-12-31T00:37:28;7.50;99.90
1461;DHT22;724;49.910;12.530;2022-12-31T00:39:55;7.50;99.90
1461;DHT22;724;49.910;12.530;2022-12-31T00:42:22;7.60;99.90
1461;DHT22;724;49.910;12.530;2022-12-31T00:44:48;7.60;99.90
1461;DHT22;724;49.910;12.530;2022-12-31T00:47:15;7.60;99.90
1461;DHT22;724;49.910;12.530;2022-12-31T00:49:42;7.70;99.90
1461;DHT22;724;49.910;12.530;2022-12-31T00:52:09;7.70;99.90
1461;DHT22;724;49.910;12.530;2022-12-31T00:54:39;7.80;99.90
1461;DHT22;724;49.910;12.530;2022-12-31T00:57:06;7.90;99.90
1461;DHT22;724;49.910;12.530;2022-12-31T00:59:32;7.90;99.90
1461;DHT22;724;49.910;12.530;2022-12-31T01:01:59;7.90;99.90
1461;DHT22;724;49.910;12.530;2022-12-31T01:04:26;8.00;99.90
1461;DHT22;724;49.910;12.530;2022-12-31T01:06:53;8.10;99.90
1461;DHT22;724;49.910;12.530;2022-12-31T01:09:19;8.10;99.90
1461;DHT22;724;49.910;12.530;2022-12-31T01:11:49;8.10;99.90
1461;DHT22;724;49.910;12.530;2022-12-31T01:14:18;8.10;99.90
1461;DHT22;724;49.910;12.530;2022-12-31T01:16:46;8.20;99.90
1461;DHT22;724;49.910;12.530;2022-12-31T01:19:15;8.20;99.90
1461;DHT22;724;49.910;12.530;2022-12-31T01:21:43;8.20;99.90
1461;DHT22;724;49.910;12.530;2022-12-31T01:24:11;8.20;99.90
1461;DHT22;724;49.910;12.530;2022-12-31T01:26:38;8.20;99.90
1461;DHT22;724;49.910;12.530;2022-12-31T01:29:07;8.20;99.90
1461;DHT22;724;49.910;12.530;2022-12-31T01:31:34;8.20;99.90
1461;DHT22;724;49.910;12.530;2022-12-31T01:34:02;8.20;99.90
1461;DHT22;724;49.910;12.530;2022-12-31T01:36:30;8.20;99.90
1461;DHT22;724;49.910;12.530;2022-12-31T01:38:58;8.20;99.90
1461;DHT22;724;49.910;12.530;2022-12-31T01:41:27;8.20;99.90
1461;DHT22;724;49.910;12.530;2022-12-31T01:43:56;8.20;99.90
1461;DHT22;724;49.910;12.530;2022-12-31T01:46:31;8.20;99.90
1461;DHT22;724;49.910;12.530;2022-12-31T01:49:08;8.20;99.90
1461;DHT22;724;49.910;12.530;2022-12-31T01:51:36;8.30;99.90
1461;DHT22;724;49.910;12.530;2022-12-31T01:54:06;8.30;99.90
1461;DHT22;724;49.910;12.530;2022-12-31T01:56:34;8.30;99.90
1461;DHT22;724;49.910;12.530;2022-12-31T01:59:05;8.20;99.90
1461;DHT22;724;49.910;12.530;2022-12-31T02:01:35;8.20;99.90
1461;DHT22;724;49.910;12.530;2022-12-31T02:04:05;8.30;99.90
1461;DHT22;724;49.910;12.530;2022-12-31T02:06:37;8.20;99.90
1461;DHT22;724;49.910;12.530;2022-12-31T02:09:06;8.30;99.90
1461;DHT22;724;49.910;12.530;2022-12-31T02:11:34;8.30;99.90
1461;DHT22;724;49.910;12.530;2022-12-31T02:14:08;8.30;99.90
1461;DHT22;724;49.910;12.530;2022-12-31T02:16:45;8.30;99.90
1461;DHT22;724;49.910;12.530;2022-12-31T02:19:41;8.30;99.90
1461;DHT22;724;49.910;12.530;2022-12-31T02:22:24;8.30;99.90
1461;DHT22;724;49.910;12.530;2022-12-31T02:25:12;8.40;99.90
1461;DHT22;724;49.910;12.530;2022-12-31T02:27:52;8.30;99.90
1461;DHT22;724;49.910;12.530;2022-12-31T02:30:25;8.40;99.90
1461;DHT22;724;49.910;12.530;2022-12-31T02:33:03;8.50;99.90
1461;DHT22;724;49.910;12.530;2022-12-31T02:35:34;8.50;99.90
1461;DHT22;724;49.910;12.530;2022-12-31T02:38:06;8.60;99.90
1461;DHT22;724;49.910;12.530;2022-12-31T02:40:34;8.60;99.90
1461;DHT22;724;49.910;12.530;2022-12-31T02:43:02;8.60;99.90
1461;DHT22;724;49.910;12.530;2022-12-31T02:45:34;8.70;99.90
1461;DHT22;724;49.910;12.530;2022-12-31T02:48:18;8.70;99.90
1461;DHT22;724;49.910;12.530;2022-12-31T02:50:55;8.70;99.90
1461;DHT22;724;49.910;12.530;2022-12-31T02:53:34;8.70;99.90
1461;DHT22;724;49.910;12.530;2022-12-31T02:56:05;8.70;99.90
1461;DHT22;724;49.910;12.530;2022-12-31T02:58:41;8.70;99.90
1461;DHT22;724;49.910;12.530;2022-12-31T03:01:33;8.70;99.90
1461;DHT22;724;49.910;12.530;2022-12-31T03:04:19;8.70;99.90
1461;DHT22;724;49.910;12.530;2022-12-31T03:07:00;8.70;99.90
1461;DHT22;724;49.910;12.530;2022-12-31T03:09:26;8.80;99.90
1461;DHT22;724;49.910;12.530;2022-12-31T03:11:53;8.90;99.90
1461;DHT22;724;49.910;12.530;2022-12-31T03:14:38;8.90;99.90
1461;DHT22;724;49.910;12.530;2022-12-31T03:17:06;8.90;99.90
1461;DHT22;724;49.910;12.530;2022-12-31T03:19:32;8.80;99.90
1461;DHT22;724;49.910;12.530;2022-12-31T03:22:17;8.80;99.90
1461;DHT22;724;49.910;12.530;2022-12-31T03:24:59;8.80;99.90
1461;DHT22;724;49.910;12.530;2022-12-31T03:27:44;8.80;99.90
1461;DHT22;724;49.910;12.530;2022-12-31T03:30:12;8.80;99.90
1461;DHT22;724;49.910;12.530;2022-12-31T03:32:41;8.80;99.90
1461;DHT22;724;49.910;12.530;2022-12-31T03:35:09;8.70;99.90
1461;DHT22;724;49.910;12.530;2022-12-31T03:37:36;8.70;99.90
1461;DHT22;724;49.910;12.530;2022-12-31T03:40:03;8.70;99.90
1461;DHT22;724;49.910;12.530;2022-12-31T03:42:30;8.70;99.90
1461;DHT22;724;49.910;12.530;2022-12-31T03:44:57;8.70;99.90
1461;DHT22;724;49.910;12.530;2022-12-31T03:47:24;8.70;99.90
1461;DHT22;724;49.910;12.530;2022-12-31T03:49:53;8.70;99.90
1461;DHT22;724;49.910;12.530;2022-12-31T03:52:20;8.80;99.90
1461;DHT22;724;49.910;12.530;2022-12-31T03:54:46;8.80;99.90
1461;DHT22;724;49.910;12.530;2022-12-31T03:57:13;8.80;99.90
1461;DHT22;724;49.910;12.530;2022-12-31T03:59:40;8.90;99.90
1461;DHT22;724;49.910;12.530;2022-12-31T04:02:07;8.90;99.90
1461;DHT22;724;49.910;12.530;2022-12-31T04:04:33;8.90;99.90
1461;DHT22;724;49.910;12.530;2022-12-31T04:07:01;8.90;99.90
1461;DHT22;724;49.910;12.530;2022-12-31T04:09:28;8.90;99.90
1461;DHT22;724;49.910;12.530;2022-12-31T04:11:55;8.90;99.90
1461;DHT22;724;49.910;12.530;2022-12-31T04:14:21;8.90;99.90
1461;DHT22;724;49.910;12.530;2022-12-31T04:16:48;9.00;99.90
1461;DHT22;724;49.910;12.530;2022-12-31T04:19:15;9.00;99.90
1461;DHT22;724;49.910;12.530;2022-12-31T04:21:42;9.00;99.90
1461;DHT22;724;49.910;12.530;2022-12-31T04:24:10;9.10;99.90
1461;DHT22;724;49.910;12.530;2022-12-31T04:26:37;9.20;99.90
1461;DHT22;724;49.910;12.530;2022-12-31T04:29:04;9.20;99.90
1461;DHT22;724;49.910;12.530;2022-12-31T04:31:31;9.30;99.90
1461;DHT22;724;49.910;12.530;2022-12-31T04:33:58;9.30;99.90
1461;DHT22;724;49.910;12.530;2022-12-31T04:36:25;9.20;99.90
1461;DHT22;724;49.910;12.530;2022-12-31T04:38:51;9.20;99.90
1461;DHT22;724;49.910;12.530;2022-12-31T04:41:19;9.20;99.90
1461;DHT22;724;49.910;12.530;2022-12-31T04:43:48;9.20;99.90
1461;DHT22;724;49.910;12.530;2022-12-31T04:46:16;9.30;99.90
1461;DHT22;724;49.910;12.530;2022-12-31T04:48:43;9.30;99.90
1461;DHT22;724;49.910;12.530;2022-12-31T04:51:10;9.30;99.90
1461;DHT22;724;49.910;12.530;2022-12-31T04:53:37;9.30;99.90
1461;DHT22;724;49.910;12.530;2022-12-31T04:56:05;9.30;99.90
1461;DHT22;724;49.910;12.530;2022-12-31T04:58:34;9.30;99.90
1461;DHT22;724;49.910;12.530;2022-12-31T05:01:00;9.30;99.90
1461;DHT22;724;49.910;12.530;2022-12-31T05:03:27;9.30;99.90
1461;DHT22;724;49.910;12.530;2022-12-31T05:05:59;9.30;99.90
1461;DHT22;724;49.910;12.530;2022-12-31T05:08:26;9.40;99.90
1461;DHT22;724;49.910;12.530;2022-12-31T05:10:53;9.40;99.90
1461;DHT22;724;49.910;12.530;2022-12-31T05:13:19;9.30;99.90
1461;DHT22;724;49.910;12.530;2022-12-31T05:15:48;9.30;99.90
1461;DHT22;724;49.910;12.530;2022-12-31T05:18:15;9.40;99.90
1461;DHT22;724;49.910;12.530;2022-12-31T05:20:42;9.40;99.90
1461;DHT22;724;49.910;12.530;2022-12-31T05:23:08;9.40;99.90
1461;DHT22;724;49.910;12.530;2022-12-31T05:25:35;9.40;99.90
1461;DHT22;724;49.910;12.530;2022-12-31T05:28:02;9.40;99.90
1461;DHT22;724;49.910;12.530;2022-12-31T05:30:29;9.50;99.90
1461;DHT22;724;49.910;12.530;2022-12-31T05:32:57;9.50;99.90
1461;DHT22;724;49.910;12.530;2022-12-31T05:35:24;9.50;99.90
1461;DHT22;724;49.910;12.530;2022-12-31T05:37:51;9.50;99.90
1461;DHT22;724;49.910;12.530;2022-12-31T05:40:18;9.50;99.90
1461;DHT22;724;49.910;12.530;2022-12-31T05:42:45;9.50;99.90
1461;DHT22;724;49.910;12.530;2022-12-31T05:45:11;9.40;99.90
1461;DHT22;724;49.910;12.530;2022-12-31T05:47:40;9.40;99.90
1461;DHT22;724;49.910;12.530;2022-12-31T05:50:09;9.40;99.90
1461;DHT22;724;49.910;12.530;2022-12-31T05:52:36;9.40;99.90
1461;DHT22;724;49.910;12.530;2022-12-31T05:55:04;9.50;99.90
1461;DHT22;724;49.910;12.530;2022-12-31T05:57:30;9.50;99.90
1461;DHT22;724;49.910;12.530;2022-12-31T05:59:57;9.50;99.90
1461;DHT22;724;49.910;12.530;2022-12-31T06:02:24;9.50;99.90
1461;DHT22;724;49.910;12.530;2022-12-31T06:04:51;9.60;99.90
1461;DHT22;724;49.910;12.530;2022-12-31T06:07:19;9.60;99.90
1461;DHT22;724;49.910;12.530;2022-12-31T06:09:45;9.60;99.90
1461;DHT22;724;49.910;12.530;2022-12-31T06:12:13;9.60;99.90
1461;DHT22;724;49.910;12.530;2022-12-31T06:14:40;9.70;99.90
1461;DHT22;724;49.910;12.530;2022-12-31T06:17:06;9.60;99.90
1461;DHT22;724;49.910;12.530;2022-12-31T06:19:33;9.60;99.90
1461;DHT22;724;49.910;12.530;2022-12-31T06:22:00;9.70;99.90
1461;DHT22;724;49.910;12.530;2022-12-31T06:24:28;9.70;99.90
1461;DHT22;724;49.910;12.530;2022-12-31T06:26:55;9.60;99.90
1461;DHT22;724;49.910;12.530;2022-12-31T06:29:22;9.50;99.90
1461;DHT22;724;49.910;12.530;2022-12-31T06:31:48;9.50;99.90
1461;DHT22;724;49.910;12.530;2022-12-31T06:34:15;9.50;99.90
1461;DHT22;724;49.910;12.530;2022-12-31T06:36:42;9.50;99.90
1461;DHT22;724;49.910;12.530;2022-12-31T06:39:09;9.50;99.90
1461;DHT22;724;49.910;12.530;2022-12-31T06:41:37;9.50;99.90
1461;DHT22;724;49.910;12.530;2022-12-31T06:44:04;9.50;99.90
1461;DHT22;724;49.910;12.530;2022-12-31T06:46:30;9.60;99.90
1461;DHT22;724;49.910;12.530;2022-12-31T06:48:57;9.60;99.90
1461;DHT22;724;49.910;12.530;2022-12-31T06:51:24;9.60;99.90
1461;DHT22;724;49.910;12.530;2022-12-31T06:53:51;9.60;99.90
1461;DHT22;724;49.910;12.530;2022-12-31T06:56:20;9.60;99.90
1461;DHT22;724;49.910;12.530;2022-12-31T06:58:49;9.60;99.90
1461;DHT22;724;49.910;12.530;2022-12-31T07:01:29;9.60;99.90
1461;DHT22;724;49.910;12.530;2022-12-31T07:04:07;9.60;99.90
1461;DHT22;724;49.910;12.530;2022-12-31T07:06:42;9.60;99.90
1461;DHT22;724;49.910;12.530;2022-12-31T07:09:17;9.60;99.90
1461;DHT22;724;49.910;12.530;2022-12-31T07:11:55;9.60;99.90
1461;DHT22;724;49.910;12.530;2022-12-31T07:14:35;9.60;99.90
1461;DHT22;724;49.910;12.530;2022-12-31T07:17:23;9.60;99.90
1461;DHT22;724;49.910;12.530;2022-12-31T07:19:55;9.60;99.90
1461;DHT22;724;49.910;12.530;2022-12-31T07:22:25;9.60;99.90
1461;DHT22;724;49.910;12.530;2022-12-31T07:24:52;9.60;99.90
1461;DHT22;724;49.910;12.530;2022-12-31T07:30:16;9.70;99.90
1461;DHT22;724;49.910;12.530;2022-12-31T07:33:00;9.70;99.90
1461;DHT22;724;49.910;12.530;2022-12-31T07:35:35;9.70;99.90
1461;DHT22;724;49.910;12.530;2022-12-31T07:38:11;9.80;99.90
1461;DHT22;724;49.910;12.530;2022-12-31T07:40:51;9.80;99.90
1461;DHT22;724;49.910;12.530;2022-12-31T07:43:27;9.80;99.90
1461;DHT22;724;49.910;12.530;2022-12-31T07:46:04;9.80;99.90
1461;DHT22;724;49.910;12.530;2022-12-31T07:48:33;9.80;99.90
1461;DHT22;724;49.910;12.530;2022-12-31T07:51:00;9.80;99.90
1461;DHT22;724;49.910;12.530;2022-12-31T07:53:27;9.90;99.90
1461;DHT22;724;49.910;12.530;2022-12-31T07:55:56;9.90;99.90
1461;DHT22;724;49.910;12.530;2022-12-31T07:58:27;9.80;99.90
1461;DHT22;724;49.910;12.530;2022-12-31T08:00:58;9.80;99.90
1461;DHT22;724;49.910;12.530;2022-12-31T08:03:40;9.80;99.90
1461;DHT22;724;49.910;12.530;2022-12-31T08:06:11;9.80;99.90
1461;DHT22;724;49.910;12.530;2022-12-31T08:08:48;9.80;99.90
1461;DHT22;724;49.910;12.530;2022-12-31T08:11:19;9.80;99.90
1461;DHT22;724;49.910;12.530;2022-12-31T08:13:52;9.80;99.90
1461;DHT22;724;49.910;12.530;2022-12-31T08:16:22;9.80;99.90
1461;DHT22;724;49.910;12.530;2022-12-31T08:18:49;9.90;99.90
1461;DHT22;724;49.910;12.530;2022-12-31T08:21:25;9.90;99.90
1461;DHT22;724;49.910;12.530;2022-12-31T08:24:03;9.90;99.90
1461;DHT22;724;49.910;12.530;2022-12-31T08:26:37;9.90;99.90
1461;DHT22;724;49.910;12.530;2022-12-31T08:29:21;10.00;99.90
1461;DHT22;724;49.910;12.530;2022-12-31T08:31:56;10.00;99.90
1461;DHT22;724;49.910;12.530;2022-12-31T08:34:31;10.00;99.90
1461;DHT22;724;49.910;12.530;2022-12-31T08:37:03;10.00;99.90
1461;DHT22;724;49.910;12.530;2022-12-31T08:39:49;10.10;99.90
1461;DHT22;724;49.910;12.530;2022-12-31T08:42:23;10.10;99.90
1461;DHT22;724;49.910;12.530;2022-12-31T08:44:58;10.10;99.90
1461;DHT22;724;49.910;12.530;2022-12-31T08:47:39;10.20;99.90
1461;DHT22;724;49.910;12.530;2022-12-31T08:50:15;10.20;99.90
1461;DHT22;724;49.910;12.530;2022-12-31T08:52:42;10.40;99.90
1461;DHT22;724;49.910;12.530;2022-12-31T08:55:13;10.40;99.90
1461;DHT22;724;49.910;12.530;2022-12-31T08:57:45;10.40;99.90
1461;DHT22;724;49.910;12.530;2022-12-31T09:00:18;10.50;99.90
1461;DHT22;724;49.910;12.530;2022-12-31T09:03:02;10.50;99.90
1461;DHT22;724;49.910;12.530;2022-12-31T09:05:42;10.50;99.90
1461;DHT22;724;49.910;12.530;2022-12-31T09:08:18;10.60;99.90
1461;DHT22;724;49.910;12.530;2022-12-31T09:10:52;10.60;99.90
1461;DHT22;724;49.910;12.530;2022-12-31T09:13:31;10.60;99.90
1461;DHT22;724;49.910;12.530;2022-12-31T09:16:07;10.60;99.90
1461;DHT22;724;49.910;12.530;2022-12-31T09:18:41;10.70;99.90
1461;DHT22;724;49.910;12.530;2022-12-31T09:21:09;10.50;99.90
1461;DHT22;724;49.910;12.530;2022-12-31T09:23:37;10.60;99.90
1461;DHT22;724;49.910;12.530;2022-12-31T09:26:13;10.70;99.90
1461;DHT22;724;49.910;12.530;2022-12-31T09:28:51;10.70;99.90
1461;DHT22;724;49.910;12.530;2022-12-31T09:31:24;10.80;99.90
1461;DHT22;724;49.910;12.530;2022-12-31T09:34:02;11.00;70.40
1461;DHT22;724;49.910;12.530;2022-12-31T09:36:37;11.20;1.00
1461;DHT22;724;49.910;12.530;2022-12-31T09:39:10;11.20;1.00
1461;DHT22;724;49.910;12.530;2022-12-31T09:45:09;11.20;1.00
1461;DHT22;724;49.910;12.530;2022-12-31T09:48:03;11.50;1.00
1461;DHT22;724;49.910;12.530;2022-12-31T09:51:01;11.50;1.00
1461;DHT22;724;49.910;12.530;2022-12-31T09:53:49;11.80;99.90
1461;DHT22;724;49.910;12.530;2022-12-31T09:56:24;14.30;1.00
1461;DHT22;724;49.910;12.530;2022-12-31T09:58:59;16.90;99.90
1461;DHT22;724;49.910;12.530;2022-12-31T10:01:39;16.50;1.00
1461;DHT22;724;49.910;12.530;2022-12-31T10:04:26;15.70;99.90
1461;DHT22;724;49.910;12.530;2022-12-31T10:07:07;16.30;99.90
1461;DHT22;724;49.910;12.530;2022-12-31T10:09:52;15.30;99.90
1461;DHT22;724;49.910;12.530;2022-12-31T10:12:57;15.90;99.90
1461;DHT22;724;49.910;12.530;2022-12-31T10:21:31;19.40;1.00
1461;DHT22;724;49.910;12.530;2022-12-31T10:24:36;17.30;1.00
1461;DHT22;724;49.910;12.530;2022-12-31T10:27:25;19.10;1.00
1461;DHT22;724;49.910;12.530;2022-12-31T10:29:57;18.80;1.00
1461;DHT22;724;49.910;12.530;2022-12-31T10:32:35;19.40;1.00
1461;DHT22;724;49.910;12.530;2022-12-31T10:35:13;19.30;99.90
1461;DHT22;724;49.910;12.530;2022-12-31T10:37:51;19.20;99.90
1461;DHT22;724;49.910;12.530;2022-12-31T10:40:25;19.30;99.90
1461;DHT22;724;49.910;12.530;2022-12-31T10:46:30;20.60;99.90
1461;DHT22;724;49.910;12.530;2022-12-31T10:49:40;18.10;99.90
1461;DHT22;724;49.910;12.530;2022-12-31T10:52:27;15.30;99.90
1461;DHT22;724;49.910;12.530;2022-12-31T10:58:52;15.60;99.90
1461;DHT22;724;49.910;12.530;2022-12-31T11:01:28;15.20;99.90
1461;DHT22;724;49.910;12.530;2022-12-31T11:04:26;14.90;99.90
1461;DHT22;724;49.910;12.530;2022-12-31T11:07:25;15.10;99.90
1461;DHT22;724;49.910;12.530;2022-12-31T11:10:20;14.20;1.00
1461;DHT22;724;49.910;12.530;2022-12-31T11:18:54;14.20;1.00
1461;DHT22;724;49.910;12.530;2022-12-31T11:21:49;13.50;1.00
1461;DHT22;724;49.910;12.530;2022-12-31T11:24:34;14.00;1.00
1461;DHT22;724;49.910;12.530;2022-12-31T11:27:14;15.20;1.00
1461;DHT22;724;49.910;12.530;2022-12-31T11:30:00;14.60;1.00
1461;DHT22;724;49.910;12.530;2022-12-31T11:32:44;13.90;1.00
1461;DHT22;724;49.910;12.530;2022-12-31T11:35:21;13.50;1.00
1461;DHT22;724;49.910;12.530;2022-12-31T11:37:49;13.90;1.00
1461;DHT22;724;49.910;12.530;2022-12-31T11:40:38;15.30;1.00
1461;DHT22;724;49.910;12.530;2022-12-31T11:43:17;14.30;1.00
1461;DHT22;724;49.910;12.530;2022-12-31T11:48:48;13.70;1.00
1461;DHT22;724;49.910;12.530;2022-12-31T11:51:41;13.30;1.00
1461;DHT22;724;49.910;12.530;2022-12-31T11:54:31;13.10;1.00
1461;DHT22;724;49.910;12.530;2022-12-31T11:57:03;13.00;99.90
1461;DHT22;724;49.910;12.530;2022-12-31T11:59:33;13.10;99.90
1461;DHT22;724;49.910;12.530;2022-12-31T12:02:07;13.20;99.90
1461;DHT22;724;49.910;12.530;2022-12-31T12:04:44;13.20;99.90
1461;DHT22;724;49.910;12.530;2022-12-31T12:07:14;13.00;99.90
1461;DHT22;724;49.910;12.530;2022-12-31T12:09:43;13.20;99.90
1461;DHT22;724;49.910;12.530;2022-12-31T12:12:10;13.30;99.90
1461;DHT22;724;49.910;12.530;2022-12-31T12:14:39;13.20;99.90
1461;DHT22;724;49.910;12.530;2022-12-31T12:17:07;13.20;99.90
1461;DHT22;724;49.910;12.530;2022-12-31T12:19:42;13.30;99.90
1461;DHT22;724;49.910;12.530;2022-12-31T12:22:11;13.30;99.90
1461;DHT22;724;49.910;12.530;2022-12-31T12:24:38;13.60;99.90
1461;DHT22;724;49.910;12.530;2022-12-31T12:27:19;13.30;99.90
1461;DHT22;724;49.910;12.530;2022-12-31T12:29:46;13.40;99.90
1461;DHT22;724;49.910;12.530;2022-12-31T12:32:15;13.20;99.90
1461;DHT22;724;49.910;12.530;2022-12-31T12:34:42;13.30;99.90
1461;DHT22;724;49.910;12.530;2022-12-31T12:37:25;13.30;99.90
1461;DHT22;724;49.910;12.530;2022-12-31T12:39:55;13.20;99.90
1461;DHT22;724;49.910;12.530;2022-12-31T12:42:22;13.20;99.90
1461;DHT22;724;49.910;12.530;2022-12-31T12:45:00;13.20;99.90
1461;DHT22;724;49.910;12.530;2022-12-31T12:47:27;13.40;99.90
1461;DHT22;724;49.910;12.530;2022-12-31T12:49:54;13.70;99.90
1461;DHT22;724;49.910;12.530;2022-12-31T12:52:37;13.70;99.90
1461;DHT22;724;49.910;12.530;2022-12-31T12:55:15;13.90;99.90
1461;DHT22;724;49.910;12.530;2022-12-31T12:57:49;13.60;61.10
1461;DHT22;724;49.910;12.530;2022-12-31T13:00:21;13.50;91.40
1461;DHT22;724;49.910;12.530;2022-12-31T13:03:14;13.40;99.90
1461;DHT22;724;49.910;12.530;2022-12-31T13:05:52;13.80;41.30
1461;DHT22;724;49.910;12.530;2022-12-31T13:08:34;13.90;1.00
1461;DHT22;724;49.910;12.530;2022-12-31T13:11:16;14.10;1.00
1461;DHT22;724;49.910;12.530;2022-12-31T13:13:57;14.10;1.00
1461;DHT22;724;49.910;12.530;2022-12-31T13:16:35;13.90;1.00
1461;DHT22;724;49.910;12.530;2022-12-31T13:19:08;13.90;1.00
1461;DHT22;724;49.910;12.530;2022-12-31T13:21:44;13.90;1.00
1461;DHT22;724;49.910;12.530;2022-12-31T13:24:24;13.90;1.00
1461;DHT22;724;49.910;12.530;2022-12-31T13:26:59;14.00;1.00
1461;DHT22;724;49.910;12.530;2022-12-31T13:29:29;13.90;1.00
1461;DHT22;724;49.910;12.530;2022-12-31T13:32:00;14.00;1.00
1461;DHT22;724;49.910;12.530;2022-12-31T13:34:30;13.80;1.00
1461;DHT22;724;49.910;12.530;2022-12-31T13:37:01;13.80;1.00
1461;DHT22;724;49.910;12.530;2022-12-31T13:39:35;13.80;1.00
1461;DHT22;724;49.910;12.530;2022-12-31T13:42:08;13.70;1.00
1461;DHT22;724;49.910;12.530;2022-12-31T13:44:38;13.60;1.00
1461;DHT22;724;49.910;12.530;2022-12-31T13:47:10;13.70;1.00
1461;DHT22;724;49.910;12.530;2022-12-31T13:49:43;13.60;1.00
1461;DHT22;724;49.910;12.530;2022-12-31T13:52:20;13.60;1.00
1461;DHT22;724;49.910;12.530;2022-12-31T13:54:55;13.60;1.00
1461;DHT22;724;49.910;12.530;2022-12-31T13:57:33;13.50;1.00
1461;DHT22;724;49.910;12.530;2022-12-31T14:00:05;13.50;1.00
1461;DHT22;724;49.910;12.530;2022-12-31T14:02:39;13.40;1.00
1461;DHT22;724;49.910;12.530;2022-12-31T14:05:14;13.40;1.00
1461;DHT22;724;49.910;12.530;2022-12-31T14:07:46;13.30;1.00
1461;DHT22;724;49.910;12.530;2022-12-31T14:10:15;13.30;1.00
1461;DHT22;724;49.910;12.530;2022-12-31T14:12:50;13.20;1.00
1461;DHT22;724;49.910;12.530;2022-12-31T14:15:22;13.20;1.00
1461;DHT22;724;49.910;12.530;2022-12-31T14:17:57;13.20;1.00
1461;DHT22;724;49.910;12.530;2022-12-31T14:20:36;13.20;1.00
1461;DHT22;724;49.910;12.530;2022-12-31T14:23:13;13.20;1.00
1461;DHT22;724;49.910;12.530;2022-12-31T14:25:46;13.20;1.00
1461;DHT22;724;49.910;12.530;2022-12-31T14:28:16;13.10;1.00
1461;DHT22;724;49.910;12.530;2022-12-31T14:30:46;13.00;1.00
1461;DHT22;724;49.910;12.530;2022-12-31T14:33:33;13.00;1.00
1461;DHT22;724;49.910;12.530;2022-12-31T14:36:14;13.00;1.00
1461;DHT22;724;49.910;12.530;2022-12-31T14:38:52;12.90;1.00
1461;DHT22;724;49.910;12.530;2022-12-31T14:41:34;12.90;1.00
1461;DHT22;724;49.910;12.530;2022-12-31T14:44:13;12.80;1.00
1461;DHT22;724;49.910;12.530;2022-12-31T14:46:58;12.80;1.00
1461;DHT22;724;49.910;12.530;2022-12-31T14:49:37;12.70;1.00
1461;DHT22;724;49.910;12.530;2022-12-31T14:52:07;12.70;1.00
1461;DHT22;724;49.910;12.530;2022-12-31T14:54:36;12.70;1.00
1461;DHT22;724;49.910;12.530;2022-12-31T14:57:10;12.60;11.70
1461;DHT22;724;49.910;12.530;2022-12-31T14:59:37;12.60;9.20
1461;DHT22;724;49.910;12.530;2022-12-31T15:02:24;12.60;1.00
1461;DHT22;724;49.910;12.530;2022-12-31T15:05:03;12.50;2.00
1461;DHT22;724;49.910;12.530;2022-12-31T15:07:35;12.40;36.50
1461;DHT22;724;49.910;12.530;2022-12-31T15:10:12;12.30;91.70
1461;DHT22;724;49.910;12.530;2022-12-31T15:13:02;12.30;99.90
1461;DHT22;724;49.910;12.530;2022-12-31T15:15:39;12.20;99.90
1461;DHT22;724;49.910;12.530;2022-12-31T15:18:25;12.30;99.90
1461;DHT22;724;49.910;12.530;2022-12-31T15:21:19;12.30;99.90
1461;DHT22;724;49.910;12.530;2022-12-31T15:23:52;12.30;99.90
1461;DHT22;724;49.910;12.530;2022-12-31T15:26:21;12.30;99.90
1461;DHT22;724;49.910;12.530;2022-12-31T15:28:59;12.20;99.90
1461;DHT22;724;49.910;12.530;2022-12-31T15:31:26;12.20;99.90
1461;DHT22;724;49.910;12.530;2022-12-31T15:33:59;12.20;99.90
1461;DHT22;724;49.910;12.530;2022-12-31T15:36:27;12.10;99.90
1461;DHT22;724;49.910;12.530;2022-12-31T15:39:20;12.10;99.90
1461;DHT22;724;49.910;12.530;2022-12-31T15:41:48;12.00;99.90
1461;DHT22;724;49.910;12.530;2022-12-31T15:44:23;12.10;99.90
1461;DHT22;724;49.910;12.530;2022-12-31T15:46:55;12.10;99.90
1461;DHT22;724;49.910;12.530;2022-12-31T15:49:23;12.10;99.90
1461;DHT22;724;49.910;12.530;2022-12-31T15:51:58;12.10;99.90
1461;DHT22;724;49.910;12.530;2022-12-31T15:54:33;12.10;99.90
1461;DHT22;724;49.910;12.530;2022-12-31T15:57:01;12.20;99.90
1461;DHT22;724;49.910;12.530;2022-12-31T15:59:30;12.10;84.80
1461;DHT22;724;49.910;12.530;2022-12-31T16:01:57;12.00;99.90
1461;DHT22;724;49.910;12.530;2022-12-31T16:04:25;12.10;99.90
1461;DHT22;724;49.910;12.530;2022-12-31T16:06:53;12.00;96.30
1461;DHT22;724;49.910;12.530;2022-12-31T16:09:25;12.00;97.30
1461;DHT22;724;49.910;12.530;2022-12-31T16:11:54;12.00;99.90
1461;DHT22;724;49.910;12.530;2022-12-31T16:14:23;12.00;99.80
1461;DHT22;724;49.910;12.530;2022-12-31T16:16:54;11.90;99.90
1461;DHT22;724;49.910;12.530;2022-12-31T16:19:28;11.80;99.90
1461;DHT22;724;49.910;12.530;2022-12-31T16:21:56;12.00;99.90
1461;DHT22;724;49.910;12.530;2022-12-31T16:24:28;12.00;66.90
1461;DHT22;724;49.910;12.530;2022-12-31T16:26:58;12.00;74.50
1461;DHT22;724;49.910;12.530;2022-12-31T16:29:28;12.00;35.60
1461;DHT22;724;49.910;12.530;2022-12-31T16:31:57;12.00;44.70
1461;DHT22;724;49.910;12.530;2022-12-31T16:34:25;11.90;54.10
1461;DHT22;724;49.910;12.530;2022-12-31T16:36:56;11.90;62.50
1461;DHT22;724;49.910;12.530;2022-12-31T16:39:29;12.00;37.20
1461;DHT22;724;49.910;12.530;2022-12-31T16:42:12;12.10;1.00
1461;DHT22;724;49.910;12.530;2022-12-31T16:44:40;12.10;1.00
1461;DHT22;724;49.910;12.530;2022-12-31T16:47:15;12.20;1.00
1461;DHT22;724;49.910;12.530;2022-12-31T16:49:47;12.30;1.00
1461;DHT22;724;49.910;12.530;2022-12-31T16:52:32;12.20;1.00
1461;DHT22;724;49.910;12.530;2022-12-31T16:55:06;12.20;1.00
1461;DHT22;724;49.910;12.530;2022-12-31T16:57:33;12.20;1.00
1461;DHT22;724;49.910;12.530;2022-12-31T17:00:02;12.20;1.00
1461;DHT22;724;49.910;12.530;2022-12-31T17:02:34;12.00;1.00
1461;DHT22;724;49.910;12.530;2022-12-31T17:05:02;12.00;1.00
1461;DHT22;724;49.910;12.530;2022-12-31T17:07:39;12.00;1.00
1461;DHT22;724;49.910;12.530;2022-12-31T17:10:17;12.00;1.00
1461;DHT22;724;49.910;12.530;2022-12-31T17:12:46;12.10;1.00
1461;DHT22;724;49.910;12.530;2022-12-31T17:15:19;12.10;1.00
1461;DHT22;724;49.910;12.530;2022-12-31T17:17:52;12.10;1.00
1461;DHT22;724;49.910;12.530;2022-12-31T17:20:23;12.10;1.00